Time;durP1;ratioP1;P1;durP2;ratioP2;P2;SDS_P1;SDS_P2;PMS_P1;PMS_P2;Temp;Humidity;BMP_temperature;BMP_pressure;BME280_temperature;BME280_humidity;BME280_pressure;Samples;Min_cycle;Max_cycle;Signal;HPM_P1;HPM_P2
2023/06/20 00:01:38;;;;;;;9.30;6.88;;;23.80;48.80;;;;;;5052040;28;20028;-72
2023/06/20 00:04:04;;;;;;;7.72;6.93;;;23.70;48.30;;;;;;5052405;28;20032;-73
2023/06/20 00:06:30;;;;;;;7.88;6.57;;;23.70;48.00;;;;;;5048365;28;20029;-73
2023/06/20 00:08:55;;;;;;;9.32;6.97;;;23.70;48.10;;;;;;5051913;28;20052;-73
2023/06/20 00:11:21;;;;;;;11.90;7.82;;;23.60;48.30;;;;;;5051869;28;20025;-72
2023/06/20 00:13:47;;;;;;;8.57;7.05;;;23.60;48.20;;;;;;5050717;28;20029;-73
2023/06/20 00:16:13;;;;;;;11.85;8.15;;;23.60;48.00;;;;;;5053619;28;20036;-72
2023/06/20 00:18:53;;;;;;;7.13;6.20;;;23.60;48.20;;;;;;5051200;28;20013;-72
2023/06/20 00:21:25;;;;;;;13.98;7.57;;;23.50;48.10;;;;;;5047668;28;20043;-72
2023/06/20 00:23:52;;;;;;;12.27;8.10;;;23.50;48.60;;;;;;5049192;28;20026;-73
2023/06/20 00:26:18;;;;;;;11.15;7.88;;;23.50;49.10;;;;;;5050365;28;20365;-73
2023/06/20 00:28:44;;;;;;;11.52;7.82;;;23.40;48.80;;;;;;5051489;28;20151;-72
2023/06/20 00:31:10;;;;;;;8.85;7.78;;;23.40;49.70;;;;;;5048936;28;20465;-73
2023/06/20 00:33:36;;;;;;;8.75;7.50;;;23.40;49.50;;;;;;5049748;28;20025;-73
2023/06/20 00:36:03;;;;;;;8.88;7.50;;;23.30;49.30;;;;;;5051542;28;20025;-73
2023/06/20 00:38:29;;;;;;;10.43;8.20;;;23.30;49.30;;;;;;5051099;28;20024;-73
2023/06/20 00:41:00;;;;;;;8.52;7.63;;;23.30;49.70;;;;;;5050363;28;20036;-73
2023/06/20 00:43:26;;;;;;;10.32;7.45;;;23.30;49.60;;;;;;5051113;28;20025;-73
2023/06/20 00:45:52;;;;;;;9.18;7.57;;;23.20;49.90;;;;;;5033583;28;20478;-73
2023/06/20 00:48:18;;;;;;;9.93;7.18;;;23.20;49.90;;;;;;5051376;28;20101;-73
2023/06/20 00:50:44;;;;;;;9.55;7.55;;;23.20;50.40;;;;;;5051312;28;20021;-72
2023/06/20 00:53:10;;;;;;;7.80;7.00;;;23.10;50.30;;;;;;5048481;28;20096;-72
2023/06/20 00:55:37;;;;;;;7.78;6.55;;;23.10;50.20;;;;;;5051146;28;20032;-73
2023/06/20 00:58:04;;;;;;;7.97;6.65;;;23.10;49.90;;;;;;5051265;28;20017;-73
2023/06/20 01:00:32;;;;;;;8.85;7.68;;;23.10;49.90;;;;;;5051092;28;20112;-73
2023/06/20 01:03:10;;;;;;;8.80;7.07;;;23.10;49.80;;;;;;5050968;28;20021;-72
2023/06/20 01:06:05;;;;;;;9.20;7.75;;;23.10;50.30;;;;;;5049613;28;20111;-73
2023/06/20 01:08:42;;;;;;;9.23;8.15;;;23.10;50.40;;;;;;5031009;28;20116;-72
2023/06/20 01:11:49;;;;;;;10.27;7.57;;;23.00;50.40;;;;;;5050652;28;20083;-73
2023/06/20 01:14:24;;;;;;;8.57;7.28;;;23.00;50.90;;;;;;5048144;28;20045;-73
2023/06/20 01:17:02;;;;;;;9.65;7.05;;;23.00;50.30;;;;;;5030377;28;20419;-73
2023/06/20 01:19:49;;;;;;;8.77;7.28;;;22.90;50.40;;;;;;5050536;28;20017;-73
2023/06/20 01:22:56;;;;;;;10.43;7.22;;;22.90;50.50;;;;;;5048773;28;20121;-73
2023/06/20 01:25:59;;;;;;;8.35;7.30;;;22.90;50.20;;;;;;5051293;28;20021;-73
2023/06/20 01:28:36;;;;;;;14.98;6.88;;;22.90;50.20;;;;;;5048771;28;20079;-73
2023/06/20 01:31:15;;;;;;;7.85;7.05;;;22.90;50.50;;;;;;5055748;28;20028;-73
2023/06/20 01:33:56;;;;;;;9.30;7.60;;;22.90;50.60;;;;;;5055412;28;20075;-74
2023/06/20 01:36:24;;;;;;;7.93;6.97;;;22.90;50.70;;;;;;5035096;28;20026;-73
2023/06/20 01:38:58;;;;;;;8.23;6.97;;;22.90;50.70;;;;;;5035607;28;20029;-72
2023/06/20 01:41:26;;;;;;;10.35;8.00;;;22.90;51.10;;;;;;5035263;28;20029;-73
2023/06/20 01:44:01;;;;;;;8.70;7.65;;;22.80;51.40;;;;;;5046844;28;20033;-73
2023/06/20 01:46:33;;;;;;;8.43;7.43;;;22.80;51.60;;;;;;5054940;28;20048;-73
2023/06/20 01:49:00;;;;;;;10.65;7.63;;;22.80;51.30;;;;;;5054816;28;20448;-72
2023/06/20 01:51:29;;;;;;;10.10;7.80;;;22.80;51.60;;;;;;5055088;28;20038;-72
2023/06/20 01:53:55;;;;;;;10.05;8.32;;;22.70;51.40;;;;;;5054908;28;20052;-73
2023/06/20 01:56:26;;;;;;;11.57;8.50;;;22.70;51.20;;;;;;5054802;28;20104;-72
2023/06/20 01:58:53;;;;;;;9.15;7.82;;;22.70;51.30;;;;;;5054865;28;20025;-72
2023/06/20 02:01:21;;;;;;;8.93;7.55;;;22.60;51.30;;;;;;5036763;28;20037;-72
2023/06/20 02:03:48;;;;;;;8.60;7.60;;;22.60;51.30;;;;;;5054725;28;20077;-74
2023/06/20 02:06:21;;;;;;;10.00;7.60;;;22.60;51.30;;;;;;5052807;28;20416;-73
2023/06/20 02:08:48;;;;;;;12.27;8.70;;;22.60;51.80;;;;;;5054736;28;20033;-73
2023/06/20 02:11:17;;;;;;;12.38;7.45;;;22.60;52.30;;;;;;5054475;28;20274;-73
2023/06/20 02:13:45;;;;;;;10.63;8.13;;;22.50;51.90;;;;;;5054747;28;20029;-73
2023/06/20 02:16:12;;;;;;;9.95;8.25;;;22.50;52.40;;;;;;5036520;28;20025;-73
2023/06/20 02:18:38;;;;;;;8.50;7.40;;;22.50;52.50;;;;;;5054440;28;20037;-73
2023/06/20 02:21:08;;;;;;;10.85;8.85;;;22.50;52.20;;;;;;5036310;28;20048;-73
2023/06/20 02:23:40;;;;;;;9.95;7.90;;;22.40;53.00;;;;;;5036410;28;20074;-73
2023/06/20 02:26:10;;;;;;;9.38;8.10;;;22.40;53.00;;;;;;5053164;28;20033;-74
2023/06/20 02:28:41;;;;;;;14.68;9.02;;;22.40;53.30;;;;;;5054196;28;20025;-73
2023/06/20 02:31:09;;;;;;;9.65;7.85;;;22.40;52.90;;;;;;5036780;28;20083;-73
2023/06/20 02:33:42;;;;;;;9.50;7.55;;;22.40;53.00;;;;;;5054109;28;20025;-73
2023/06/20 02:36:12;;;;;;;10.13;7.78;;;22.40;52.90;;;;;;5035426;28;20079;-73
2023/06/20 02:38:42;;;;;;;9.48;7.53;;;22.40;52.70;;;;;;5054004;28;20104;-73
2023/06/20 02:41:08;;;;;;;10.85;8.05;;;22.40;52.50;;;;;;5036363;28;20393;-73
2023/06/20 02:43:34;;;;;;;9.65;8.13;;;22.30;52.60;;;;;;5054221;28;20021;-74
2023/06/20 02:46:45;;;;;;;9.52;7.47;;;22.30;52.60;;;;;;5054013;28;20029;-73
2023/06/20 02:49:32;;;;;;;8.98;7.57;;;22.30;52.70;;;;;;5024972;28;20041;-74
2023/06/20 02:52:13;;;;;;;10.63;7.13;;;22.30;52.60;;;;;;5054121;28;20421;-73
2023/06/20 02:55:23;;;;;;;10.27;8.07;;;22.30;52.80;;;;;;5053786;28;20059;-74
2023/06/20 02:57:54;;;;;;;12.27;9.15;;;22.30;53.10;;;;;;4972782;28;20097;-73
2023/06/20 03:00:21;;;;;;;14.90;8.23;;;22.20;53.30;;;;;;5038550;28;20041;-73
2023/06/20 03:02:54;;;;;;;9.85;8.05;;;22.20;52.90;;;;;;5053824;28;20041;-73
2023/06/20 03:05:22;;;;;;;8.55;7.45;;;22.10;53.20;;;;;;5035562;28;20075;-73
2023/06/20 03:07:49;;;;;;;12.60;8.18;;;22.10;53.10;;;;;;5053412;28;20139;-73
2023/06/20 03:10:15;;;;;;;10.80;7.15;;;22.10;53.20;;;;;;5053451;28;20495;-73
2023/06/20 03:12:41;;;;;;;9.13;7.47;;;22.10;53.30;;;;;;5053724;28;20064;-73
2023/06/20 03:15:07;;;;;;;9.32;7.97;;;22.00;53.10;;;;;;5035490;28;20052;-74
2023/06/20 03:17:35;;;;;;;10.18;7.07;;;22.00;53.30;;;;;;5035497;28;20034;-72
2023/06/20 03:20:04;;;;;;;8.95;7.30;;;22.10;53.40;;;;;;5053233;28;20024;-74
2023/06/20 03:22:32;;;;;;;7.82;7.00;;;22.00;53.40;;;;;;5051870;28;20040;-73
2023/06/20 03:24:58;;;;;;;9.07;7.07;;;22.00;53.30;;;;;;5035699;28;20051;-73
2023/06/20 03:27:24;;;;;;;9.85;8.07;;;22.00;53.40;;;;;;5052255;28;20029;-73
2023/06/20 03:29:56;;;;;;;9.45;7.38;;;22.00;53.20;;;;;;5053788;28;20388;-73
2023/06/20 03:32:21;;;;;;;10.43;7.40;;;22.10;53.40;;;;;;5053197;28;20060;-73
2023/06/20 03:34:47;;;;;;;9.65;7.82;;;22.10;53.40;;;;;;5035172;28;20445;-73
2023/06/20 03:37:16;;;;;;;8.93;7.72;;;22.10;53.50;;;;;;5039559;28;20033;-73
2023/06/20 03:39:47;;;;;;;10.70;7.38;;;22.10;54.00;;;;;;5032918;28;20026;-73
2023/06/20 03:42:12;;;;;;;13.35;9.52;;;22.10;53.90;;;;;;5033130;28;20109;-73
2023/06/20 03:44:38;;;;;;;10.95;8.57;;;22.10;54.00;;;;;;5045247;28;20445;-73
2023/06/20 03:47:04;;;;;;;9.10;7.75;;;22.10;53.90;;;;;;5051123;28;20061;-73
2023/06/20 03:49:30;;;;;;;9.68;8.05;;;22.10;54.10;;;;;;5052381;28;20480;-74
2023/06/20 03:51:58;;;;;;;15.88;7.65;;;22.10;54.10;;;;;;5052830;28;20047;-73
2023/06/20 03:54:24;;;;;;;12.13;7.80;;;22.10;54.00;;;;;;5052832;28;20029;-73
2023/06/20 03:56:57;;;;;;;12.07;8.40;;;22.10;54.00;;;;;;5052829;28;20029;-73
2023/06/20 03:59:23;;;;;;;14.05;9.77;;;22.20;53.90;;;;;;5052557;28;20068;-73
2023/06/20 04:01:50;;;;;;;13.60;9.27;;;22.20;54.30;;;;;;5052338;28;20684;-73
2023/06/20 04:04:21;;;;;;;12.27;8.45;;;22.20;54.60;;;;;;5052502;28;20041;-73
2023/06/20 04:06:49;;;;;;;13.63;9.48;;;22.30;54.20;;;;;;5050638;28;20373;-73
2023/06/20 04:09:25;;;;;;;12.68;9.23;;;22.30;54.90;;;;;;5052549;28;20032;-73
2023/06/20 04:11:50;;;;;;;15.32;10.57;;;22.30;54.70;;;;;;5052319;28;20456;-73
2023/06/20 04:14:16;;;;;;;18.48;9.20;;;22.40;54.50;;;;;;5050737;28;20067;-73
2023/06/20 04:16:47;;;;;;;14.00;9.57;;;22.40;54.20;;;;;;5049806;28;20120;-73
2023/06/20 04:19:14;;;;;;;10.00;8.48;;;22.50;54.40;;;;;;5052738;28;20027;-73
2023/06/20 04:21:39;;;;;;;11.50;8.05;;;22.60;54.40;;;;;;5034409;28;20036;-73
2023/06/20 04:24:05;;;;;;;11.43;8.93;;;22.70;54.40;;;;;;5052136;28;20557;-73
2023/06/20 04:26:31;;;;;;;10.23;8.23;;;22.80;54.40;;;;;;5052183;28;20082;-73
2023/06/20 04:29:00;;;;;;;13.18;8.27;;;22.90;54.30;;;;;;5034497;28;20032;-73
2023/06/20 04:31:29;;;;;;;14.13;9.20;;;23.00;54.00;;;;;;5052289;28;20043;-73
2023/06/20 04:33:56;;;;;;;12.27;9.45;;;23.10;54.50;;;;;;5052096;28;20024;-74
2023/06/20 04:36:23;;;;;;;9.68;7.60;;;23.20;53.70;;;;;;5051008;28;20029;-74
2023/06/20 04:38:51;;;;;;;14.25;8.95;;;23.40;53.50;;;;;;5034450;28;20037;-73
2023/06/20 04:41:21;;;;;;;11.00;8.38;;;23.50;53.30;;;;;;5051440;28;20045;-73
2023/06/20 04:47:16;;;;;;;10.63;7.88;;;23.70;52.90;;;;;;5046078;28;20052;-73
2023/06/20 04:55:58;;;;;;;14.73;8.30;;;23.90;52.60;;;;;;4029630;22;20050;-72
2023/06/20 04:59:27;;;;;;;23.00;9.27;;;23.90;51.60;;;;;;5030493;28;20026;-72
2023/06/20 05:02:58;;;;;;;10.95;7.72;;;23.90;51.40;;;;;;5034474;28;20465;-73
2023/06/20 05:05:29;;;;;;;23.55;8.45;;;23.90;51.30;;;;;;5034339;28;20026;-74
2023/06/20 05:07:56;;;;;;;11.93;8.10;;;23.90;51.30;;;;;;5017094;28;20088;-74
2023/06/20 05:10:30;;;;;;;13.50;8.75;;;23.90;51.50;;;;;;5034663;28;20140;-73
2023/06/20 05:13:00;;;;;;;20.13;8.23;;;23.90;51.60;;;;;;5032924;28;20029;-69
2023/06/20 05:15:28;;;;;;;11.52;8.05;;;23.90;51.40;;;;;;5015437;28;20030;-74
2023/06/20 05:17:54;;;;;;;14.25;7.97;;;24.00;51.40;;;;;;5034653;28;20033;-74
2023/06/20 05:20:25;;;;;;;11.48;8.10;;;24.00;51.60;;;;;;5032569;28;20083;-75
2023/06/20 05:22:51;;;;;;;15.13;8.23;;;24.10;51.60;;;;;;5034598;28;20477;-75
2023/06/20 05:25:22;;;;;;;15.00;8.95;;;24.20;51.70;;;;;;5035978;28;20032;-74
2023/06/20 05:27:50;;;;;;;13.55;8.55;;;24.30;51.70;;;;;;5017604;28;20095;-75
2023/06/20 05:30:19;;;;;;;11.10;8.20;;;24.40;51.70;;;;;;5016948;28;20037;-75
2023/06/20 05:32:45;;;;;;;11.27;8.10;;;24.50;51.60;;;;;;5035645;28;20023;-75
2023/06/20 05:35:11;;;;;;;16.38;9.90;;;24.70;51.50;;;;;;5035592;28;20052;-75
2023/06/20 05:37:39;;;;;;;16.50;8.50;;;24.90;51.20;;;;;;5017592;28;20392;-75
2023/06/20 05:40:06;;;;;;;15.52;8.75;;;25.00;51.10;;;;;;5035715;28;20024;-75
2023/06/20 05:42:32;;;;;;;18.70;9.20;;;25.10;50.70;;;;;;5035452;28;20563;-75
2023/06/20 05:44:58;;;;;;;15.32;8.65;;;25.30;50.40;;;;;;5017689;28;20061;-75
2023/06/20 05:47:29;;;;;;;12.50;8.75;;;25.40;50.10;;;;;;5016715;28;20025;-75
2023/06/20 05:49:57;;;;;;;19.48;9.27;;;25.60;49.80;;;;;;5035131;28;20022;-75
2023/06/20 05:52:28;;;;;;;18.20;8.20;;;25.70;49.60;;;;;;5034791;28;20040;-75
2023/06/20 05:54:56;;;;;;;11.23;8.10;;;25.80;49.20;;;;;;5029084;28;20532;-75
2023/06/20 05:57:24;;;;;;;12.73;8.13;;;25.90;49.10;;;;;;5025627;28;20029;-75
2023/06/20 05:59:51;;;;;;;13.65;8.43;;;26.00;48.80;;;;;;5014842;28;20032;-75
2023/06/20 06:02:16;;;;;;;11.52;7.43;;;26.10;48.60;;;;;;5015142;28;20026;-75
2023/06/20 06:04:44;;;;;;;14.38;8.35;;;26.20;48.50;;;;;;5014913;28;20393;-75
2023/06/20 06:07:15;;;;;;;15.85;8.60;;;26.20;48.40;;;;;;5015154;28;20022;-75
2023/06/20 06:09:43;;;;;;;22.25;9.27;;;26.30;48.30;;;;;;5032309;28;20033;-74
2023/06/20 06:12:10;;;;;;;19.55;8.90;;;26.40;48.10;;;;;;5034386;28;20116;-74
2023/06/20 06:14:41;;;;;;;13.35;9.32;;;26.50;47.80;;;;;;5034569;28;20477;-75
2023/06/20 06:17:07;;;;;;;10.77;9.15;;;26.60;47.50;;;;;;5014202;28;20038;-75
2023/06/20 06:19:33;;;;;;;13.38;9.00;;;26.70;47.30;;;;;;5034385;28;20370;-75
2023/06/20 06:21:58;;;;;;;18.50;8.70;;;26.80;47.10;;;;;;5031536;28;20047;-75
2023/06/20 06:24:27;;;;;;;14.25;9.13;;;26.80;46.70;;;;;;5031424;28;20029;-75
2023/06/20 06:26:53;;;;;;;17.58;9.57;;;26.80;46.30;;;;;;5016475;28;20034;-75
2023/06/20 06:29:36;;;;;;;14.23;8.38;;;26.80;46.00;;;;;;5034811;28;20079;-75
2023/06/20 06:32:04;;;;;;;14.15;9.45;;;26.70;45.90;;;;;;5017803;28;20037;-75
2023/06/20 06:34:36;;;;;;;12.80;8.65;;;26.70;46.30;;;;;;5012180;28;20057;-74
2023/06/20 06:37:13;;;;;;;11.38;8.80;;;26.60;46.50;;;;;;5012091;28;20033;-75
2023/06/20 06:39:40;;;;;;;14.43;8.38;;;26.60;46.80;;;;;;5014394;28;20434;-74
2023/06/20 06:42:13;;;;;;;20.27;9.05;;;26.70;47.10;;;;;;5029652;28;20080;-74
2023/06/20 06:44:48;;;;;;;22.10;10.57;;;26.70;47.10;;;;;;5006400;28;20527;-74
2023/06/20 06:47:19;;;;;;;10.55;8.23;;;26.70;46.60;;;;;;5025307;28;20116;-74
2023/06/20 06:49:48;;;;;;;19.42;8.70;;;26.90;46.80;;;;;;5033646;28;20082;-74
2023/06/20 06:52:19;;;;;;;21.20;8.90;;;27.00;46.30;;;;;;5034065;28;20029;-74
2023/06/20 06:54:50;;;;;;;10.35;8.82;;;27.10;46.30;;;;;;5015638;28;20389;-75
2023/06/20 06:57:22;;;;;;;10.40;8.57;;;27.20;45.90;;;;;;5033820;28;20070;-75
2023/06/20 06:59:53;;;;;;;9.02;7.32;;;27.30;45.80;;;;;;5016230;28;20481;-75
2023/06/20 07:02:22;;;;;;;10.27;7.60;;;27.40;45.60;;;;;;5027031;28;20153;-74
2023/06/20 07:04:53;;;;;;;10.65;7.72;;;27.60;45.60;;;;;;5014472;28;20711;-74
2023/06/20 07:07:30;;;;;;;10.82;8.68;;;27.70;45.40;;;;;;5032619;28;20030;-74
2023/06/20 07:09:58;;;;;;;10.75;8.07;;;27.80;45.00;;;;;;5033591;28;20032;-74
2023/06/20 07:12:31;;;;;;;12.65;8.88;;;27.90;44.50;;;;;;5035217;28;20688;-74
2023/06/20 07:15:02;;;;;;;;;;;28.00;44.50;;;;;;5038335;28;20053;-75
2023/06/20 07:17:28;;;;;;;9.05;8.07;;;28.10;45.10;;;;;;5035662;28;19905;-75
2023/06/20 07:20:09;;;;;;;12.13;8.65;;;28.20;43.10;;;;;;5020214;28;20036;-75
2023/06/20 07:22:37;;;;;;;13.07;9.02;;;28.10;42.90;;;;;;5032588;28;20465;-75
2023/06/20 07:25:07;;;;;;;11.60;8.52;;;28.10;42.80;;;;;;5033201;28;20018;-74
2023/06/20 07:27:36;;;;;;;10.23;8.25;;;28.10;43.00;;;;;;5033540;28;20041;-75
2023/06/20 07:30:11;;;;;;;11.40;9.25;;;28.20;43.10;;;;;;5035661;28;20131;-75
2023/06/20 07:32:37;;;;;;;10.63;8.20;;;28.10;43.00;;;;;;5034186;28;20025;-76
2023/06/20 07:35:06;;;;;;;15.30;9.25;;;28.10;42.90;;;;;;5033249;28;20025;-76
2023/06/20 07:37:31;;;;;;;14.50;9.05;;;28.10;42.50;;;;;;5033260;28;20432;-75
2023/06/20 07:40:05;;;;;;;14.52;9.82;;;28.20;42.80;;;;;;5027299;28;20029;-75
2023/06/20 07:42:33;;;;;;;;;;;28.20;42.60;;;;;;5033443;28;20026;-75
2023/06/20 07:45:04;;;;;;;19.23;9.70;;;28.20;43.50;;;;;;5032991;28;19988;-75
2023/06/20 07:47:30;;;;;;;13.95;9.50;;;28.30;42.40;;;;;;5031468;28;20384;-76
2023/06/20 07:50:01;;;;;;;13.35;9.02;;;28.40;42.90;;;;;;5015133;28;20029;-76
2023/06/20 07:52:40;;;;;;;13.43;9.73;;;28.40;42.60;;;;;;5032897;28;20022;-76
2023/06/20 07:55:09;;;;;;;12.43;9.90;;;28.50;42.20;;;;;;5033253;28;20040;-75
2023/06/20 07:57:38;;;;;;;10.75;9.20;;;28.60;41.10;;;;;;5022866;28;20459;-76
2023/06/20 08:00:09;;;;;;;19.55;11.07;;;28.60;40.90;;;;;;4995505;28;20026;-76
2023/06/20 08:02:37;;;;;;;15.48;9.45;;;28.70;41.30;;;;;;5011872;28;20053;-77
2023/06/20 08:05:08;;;;;;;11.57;9.18;;;28.70;41.30;;;;;;5012883;28;20417;-76
2023/06/20 08:07:36;;;;;;;11.95;9.23;;;28.70;41.40;;;;;;5013103;28;20065;-74
2023/06/20 08:10:07;;;;;;;10.95;9.35;;;28.60;41.80;;;;;;5032630;28;20080;-75
2023/06/20 08:12:36;;;;;;;14.05;9.82;;;28.60;41.90;;;;;;5015039;28;20362;-74
2023/06/20 08:15:07;;;;;;;14.25;9.45;;;28.50;41.70;;;;;;5012781;28;20029;-75
2023/06/20 08:17:38;;;;;;;18.08;9.68;;;28.50;41.90;;;;;;5032537;28;20029;-75
2023/06/20 08:20:09;;;;;;;14.27;8.52;;;28.40;41.80;;;;;;5030513;28;20092;-75
2023/06/20 08:22:35;;;;;;;16.83;9.57;;;28.30;42.10;;;;;;5032481;28;20358;-75
2023/06/20 08:25:12;;;;;;;14.15;9.65;;;28.30;42.30;;;;;;5032333;28;20480;-75
2023/06/20 08:27:41;;;;;;;17.73;9.65;;;28.30;42.50;;;;;;5028732;28;20030;-74
2023/06/20 08:30:18;;;;;;;15.27;10.35;;;28.30;42.70;;;;;;5030966;28;20481;-73
2023/06/20 08:32:56;;;;;;;11.65;9.15;;;28.20;42.40;;;;;;5032172;28;20096;-74
2023/06/20 08:35:27;;;;;;;16.65;11.02;;;28.20;42.60;;;;;;5030261;28;20029;-75
2023/06/20 08:37:53;;;;;;;15.48;11.20;;;28.20;42.70;;;;;;5030518;28;20454;-75
2023/06/20 08:40:21;;;;;;;15.18;9.88;;;28.20;42.90;;;;;;5032071;28;20485;-75
2023/06/20 08:42:49;;;;;;;20.00;10.90;;;28.30;43.10;;;;;;5032065;28;20039;-75
2023/06/20 08:45:21;;;;;;;19.48;9.93;;;28.30;43.20;;;;;;5022202;28;20026;-76
2023/06/20 08:47:49;;;;;;;15.65;10.70;;;28.20;43.10;;;;;;5026897;28;20144;-75
2023/06/20 08:50:15;;;;;;;17.63;10.75;;;28.30;42.90;;;;;;5031502;28;20032;-75
2023/06/20 08:52:48;;;;;;;10.82;9.35;;;28.30;43.00;;;;;;5029966;28;20423;-75
2023/06/20 08:55:23;;;;;;;11.35;9.40;;;28.30;42.90;;;;;;5013714;28;20125;-75
2023/06/20 08:57:51;;;;;;;11.25;9.68;;;28.40;42.70;;;;;;5012142;28;20026;-74
2023/06/20 09:00:23;;;;;;;14.65;10.10;;;28.40;42.80;;;;;;5012255;28;20037;-75
2023/06/20 09:02:57;;;;;;;16.23;9.73;;;28.40;42.60;;;;;;5012322;28;20041;-75
2023/06/20 09:05:23;;;;;;;11.27;9.48;;;28.50;42.60;;;;;;5012060;28;20101;-75
2023/06/20 09:07:57;;;;;;;14.20;9.73;;;28.50;42.60;;;;;;5025935;28;20108;-75
2023/06/20 09:10:29;;;;;;;13.30;9.55;;;28.60;42.90;;;;;;5013768;28;20548;-75
2023/06/20 09:13:01;;;;;;;16.45;10.75;;;28.70;42.50;;;;;;5015605;28;20109;-75
2023/06/20 09:15:38;;;;;;;13.75;10.05;;;28.70;42.60;;;;;;5012088;28;20097;-75
2023/06/20 09:18:06;;;;;;;17.02;10.65;;;28.70;42.60;;;;;;5012038;28;20037;-75
2023/06/20 09:20:32;;;;;;;14.35;8.90;;;28.80;42.60;;;;;;5024674;28;20409;-75
2023/06/20 09:23:04;;;;;;;12.60;10.68;;;28.80;42.70;;;;;;5031921;28;20031;-75
2023/06/20 09:25:39;;;;;;;13.05;10.23;;;28.80;42.50;;;;;;5031755;28;20109;-75
2023/06/20 09:28:14;;;;;;;13.35;9.95;;;28.90;42.70;;;;;;5013937;28;20026;-75
2023/06/20 09:30:47;;;;;;;11.63;10.43;;;28.90;42.50;;;;;;5031578;28;20465;-75
2023/06/20 09:33:14;;;;;;;12.18;9.43;;;29.00;42.30;;;;;;5030551;28;20067;-75
2023/06/20 09:35:43;;;;;;;12.73;9.13;;;29.10;42.40;;;;;;5031821;28;20055;-74
2023/06/20 09:38:11;;;;;;;15.73;10.48;;;29.10;42.30;;;;;;5031655;28;20059;-75
2023/06/20 09:40:52;;;;;;;15.63;10.75;;;29.20;42.60;;;;;;5014060;28;20445;-74
2023/06/20 09:43:23;;;;;;;10.93;9.30;;;29.20;42.60;;;;;;5031394;28;20040;-75
2023/06/20 09:45:49;;;;;;;16.55;10.60;;;29.30;42.40;;;;;;5032299;28;20051;-75
2023/06/20 09:48:15;;;;;;;11.73;9.82;;;29.30;42.60;;;;;;5017551;28;20108;-75
2023/06/20 09:50:43;;;;;;;14.45;9.93;;;29.40;42.60;;;;;;5033840;28;20053;-75
2023/06/20 09:53:15;;;;;;;10.35;9.25;;;29.40;42.50;;;;;;5032952;28;20060;-75
2023/06/20 09:55:48;;;;;;;25.42;9.10;;;29.50;42.50;;;;;;5034966;28;20028;-75
2023/06/20 09:58:17;;;;;;;14.60;8.53;;;29.60;42.20;;;;;;5035020;28;20028;-75
2023/06/20 10:00:44;;;;;;;9.65;8.32;;;29.70;42.00;;;;;;5017488;28;20025;-75
2023/06/20 10:03:16;;;;;;;9.35;8.38;;;29.70;41.90;;;;;;5035301;28;20025;-75
2023/06/20 10:05:45;;;;;;;9.85;8.85;;;29.80;41.80;;;;;;5034702;28;20045;-75
2023/06/20 10:08:11;;;;;;;22.45;9.60;;;29.80;41.60;;;;;;5028882;28;20034;-75
2023/06/20 10:10:37;;;;;;;10.60;8.82;;;30.00;41.50;;;;;;5034664;28;20084;-75
2023/06/20 10:13:04;;;;;;;9.90;8.90;;;30.00;41.50;;;;;;5034516;28;20465;-75
2023/06/20 10:15:33;;;;;;;9.60;8.18;;;30.00;41.30;;;;;;5034384;28;20036;-75
2023/06/20 10:18:17;;;;;;;8.95;7.95;;;30.10;40.80;;;;;;5034463;28;20477;-75
2023/06/20 10:20:43;;;;;;;;;;;30.20;40.90;;;;;;5034309;28;20033;-75
2023/06/20 10:23:20;;;;;;;9.88;8.88;;;30.30;41.60;;;;;;5034866;28;20292;-75
2023/06/20 10:25:53;;;;;;;9.63;8.45;;;30.30;41.10;;;;;;5028492;28;20240;-75
2023/06/20 10:28:22;;;;;;;8.80;7.90;;;30.40;41.10;;;;;;5034271;28;20469;-75
2023/06/20 10:31:02;;;;;;;12.95;8.68;;;30.40;40.90;;;;;;5034268;28;20272;-75
2023/06/20 10:33:34;;;;;;;23.25;9.23;;;30.50;41.40;;;;;;5034964;28;20048;-75
2023/06/20 10:36:12;;;;;;;10.90;8.98;;;30.50;41.70;;;;;;5023918;28;20057;-75
2023/06/20 10:38:51;;;;;;;10.68;8.25;;;30.70;41.40;;;;;;5038571;28;20635;-75
2023/06/20 10:41:27;;;;;;;8.63;7.78;;;30.80;41.10;;;;;;5034235;28;20030;-75
2023/06/20 10:44:00;;;;;;;9.25;8.35;;;30.90;41.00;;;;;;5033846;28;20064;-75
2023/06/20 10:46:38;;;;;;;10.18;8.02;;;30.90;41.00;;;;;;5034006;28;20028;-75
2023/06/20 10:49:05;;;;;;;10.85;8.23;;;31.00;40.50;;;;;;5034026;28;20021;-75
2023/06/20 10:51:57;;;;;;;7.70;7.00;;;31.10;40.40;;;;;;5034443;28;20040;-74
2023/06/20 10:54:37;;;;;;;8.93;7.40;;;31.10;40.10;;;;;;5026315;28;20036;-75
2023/06/20 10:57:04;;;;;;;8.80;7.85;;;31.20;40.00;;;;;;5013835;28;20555;-75
2023/06/20 10:59:32;;;;;;;12.18;7.93;;;31.20;39.80;;;;;;4995998;28;20029;-75
2023/06/20 11:01:59;;;;;;;10.68;8.05;;;31.30;39.80;;;;;;5013865;28;20576;-74
2023/06/20 11:04:30;;;;;;;10.57;7.30;;;31.30;39.70;;;;;;5022915;28;20029;-75
2023/06/20 11:06:57;;;;;;;9.50;7.75;;;31.40;39.80;;;;;;5033951;28;20469;-75
2023/06/20 11:09:23;;;;;;;9.32;7.40;;;31.40;39.70;;;;;;5033703;28;20394;-74
2023/06/20 11:11:51;;;;;;;9.43;7.47;;;31.50;39.80;;;;;;5033456;28;20033;-75
2023/06/20 11:14:26;;;;;;;14.45;7.20;;;31.50;39.70;;;;;;5025275;28;20022;-74
2023/06/20 11:16:59;;;;;;;8.90;7.30;;;31.60;39.60;;;;;;5014030;28;20036;-75
2023/06/20 11:19:30;;;;;;;10.57;7.82;;;31.70;39.50;;;;;;5013658;28;20032;-75
2023/06/20 11:22:01;;;;;;;9.10;7.55;;;31.70;39.50;;;;;;5021341;28;20116;-75
2023/06/20 11:24:35;;;;;;;14.15;7.57;;;31.80;39.40;;;;;;5032720;28;20026;-75
2023/06/20 11:27:15;;;;;;;8.18;7.38;;;31.90;39.30;;;;;;5033479;28;20026;-75
2023/06/20 11:29:51;;;;;;;9.55;6.63;;;32.00;39.00;;;;;;5033036;28;20106;-74
2023/06/20 11:32:19;;;;;;;11.23;7.80;;;32.00;38.70;;;;;;5010633;28;20033;-74
2023/06/20 11:35:03;;;;;;;7.82;7.13;;;32.10;38.30;;;;;;5012117;28;20146;-74
2023/06/20 11:37:34;;;;;;;8.57;7.75;;;32.10;38.80;;;;;;4995709;28;20036;-74
2023/06/20 11:40:04;;;;;;;8.15;7.30;;;32.10;38.60;;;;;;5011952;28;20080;-75
2023/06/20 11:42:38;;;;;;;12.73;7.35;;;32.20;38.70;;;;;;5012253;28;20034;-75
2023/06/20 11:45:09;;;;;;;7.55;6.80;;;32.20;38.40;;;;;;5011968;28;20129;-74
2023/06/20 11:47:44;;;;;;;8.13;7.13;;;32.30;38.40;;;;;;5013126;28;20026;-75
2023/06/20 11:50:23;;;;;;;8.02;7.05;;;32.40;38.30;;;;;;5011683;28;20036;-74
2023/06/20 11:52:57;;;;;;;9.75;7.50;;;32.40;38.00;;;;;;5031912;28;20041;-76
2023/06/20 11:55:47;;;;;;;8.13;7.18;;;32.50;37.90;;;;;;5014927;28;20037;-76
2023/06/20 11:58:19;;;;;;;7.70;6.97;;;32.60;37.80;;;;;;5014967;28;20030;-74
2023/06/20 12:01:13;;;;;;;8.32;7.13;;;32.70;37.80;;;;;;5031858;28;20492;-74
2023/06/20 12:03:43;;;;;;;8.52;6.85;;;32.90;37.80;;;;;;5031848;28;20034;-75
2023/06/20 12:06:29;;;;;;;7.65;6.43;;;33.10;37.80;;;;;;5013307;28;20048;-76
2023/06/20 12:09:09;;;;;;;8.80;7.20;;;33.30;37.60;;;;;;5032223;28;20030;-75
2023/06/20 12:11:54;;;;;;;9.05;6.93;;;33.60;36.80;;;;;;5032517;28;20072;-75
2023/06/20 12:14:24;;;;;;;7.95;7.15;;;33.80;36.60;;;;;;5032132;28;20116;-75
2023/06/20 12:16:58;;;;;;;8.02;7.18;;;34.00;36.60;;;;;;5014462;28;20107;-75
2023/06/20 12:19:29;;;;;;;13.13;6.75;;;34.20;35.90;;;;;;5031844;28;20029;-74
2023/06/20 12:22:02;;;;;;;7.85;7.00;;;34.40;35.70;;;;;;5013769;28;20033;-75
2023/06/20 12:24:28;;;;;;;10.15;6.70;;;34.60;35.60;;;;;;5014715;28;20453;-75
2023/06/20 12:26:54;;;;;;;7.05;6.30;;;34.70;34.60;;;;;;5032129;28;20096;-75
2023/06/20 12:29:20;;;;;;;7.20;6.43;;;34.80;35.00;;;;;;5032650;28;20049;-75
2023/06/20 12:31:48;;;;;;;10.93;6.97;;;35.00;34.90;;;;;;5032033;28;20393;-74
2023/06/20 12:34:18;;;;;;;6.97;6.00;;;35.20;34.50;;;;;;5032006;28;20108;-75
2023/06/20 12:36:49;;;;;;;8.80;6.15;;;35.20;34.10;;;;;;5014173;28;20048;-75
2023/06/20 12:39:22;;;;;;;6.90;5.97;;;35.40;33.80;;;;;;5032032;28;20449;-75
2023/06/20 12:41:47;;;;;;;7.43;6.72;;;35.40;33.50;;;;;;5031944;28;20112;-75
2023/06/20 12:44:21;;;;;;;12.48;6.88;;;35.50;33.50;;;;;;5031888;28;20120;-75
2023/06/20 12:46:54;;;;;;;8.38;6.03;;;35.40;33.60;;;;;;5014031;28;20033;-75
2023/06/20 12:52:12;;;;;;;11.80;6.20;;;35.50;34.40;;;;;;5002628;28;19955;-75
2023/06/20 12:54:46;;;;;;;7.72;6.32;;;35.40;33.20;;;;;;5013903;28;20041;-75
2023/06/20 12:57:11;;;;;;;9.63;7.15;;;35.30;33.00;;;;;;5031737;28;20114;-75
2023/06/20 12:59:41;;;;;;;9.85;6.55;;;35.20;33.00;;;;;;5014223;28;20068;-75
2023/06/20 13:02:11;;;;;;;7.78;6.45;;;35.20;33.00;;;;;;5031534;28;20017;-76
2023/06/20 13:04:37;;;;;;;6.80;6.10;;;35.10;33.20;;;;;;5026251;28;20057;-75
2023/06/20 13:07:05;;;;;;;6.65;5.95;;;35.00;32.70;;;;;;5031778;28;20064;-75
2023/06/20 13:09:35;;;;;;;8.30;6.20;;;35.00;33.30;;;;;;5031896;28;20056;-76
2023/06/20 13:12:11;;;;;;;13.45;6.15;;;34.90;33.20;;;;;;5014180;28;20404;-75
2023/06/20 13:14:42;;;;;;;17.38;6.22;;;34.90;33.90;;;;;;5031771;28;20026;-76